createdAt,value
2019-02-25T00:02:23.893Z,98.00
2019-02-25T00:07:27.592Z,70.73
2019-02-25T00:12:31.345Z,60.17
2019-02-25T00:17:35.601Z,118.40
2019-02-25T00:22:39.353Z,133.33
2019-02-25T00:27:43.433Z,62.17
2019-02-25T00:32:47.229Z,70.53
2019-02-25T00:37:50.910Z,80.00
2019-02-25T00:42:54.825Z,49.43
2019-02-25T00:47:58.510Z,64.67
2019-02-25T00:53:02.452Z,56.60
2019-02-25T00:58:06.134Z,78.90
2019-02-25T01:03:09.810Z,42.57
2019-02-25T01:08:13.733Z,36.73
2019-02-25T01:13:17.398Z,35.20
2019-02-25T01:18:21.125Z,40.70
2019-02-25T01:23:24.922Z,38.97
2019-02-25T01:28:28.194Z,45.40
2019-02-25T01:33:31.866Z,40.43
2019-02-25T01:38:35.129Z,36.73
2019-02-25T01:43:38.898Z,34.83
2019-02-25T01:48:42.633Z,35.00
2019-02-25T01:53:46.467Z,40.17
2019-02-25T01:58:50.151Z,35.50
2019-02-25T02:03:53.909Z,39.40
2019-02-25T02:08:58.365Z,35.07
2019-02-25T02:14:02.053Z,37.93
2019-02-25T02:19:05.737Z,35.30
2019-02-25T02:24:09.416Z,28.80
2019-02-25T02:29:13.090Z,29.30
2019-02-25T02:34:16.770Z,27.13
2019-02-25T02:39:20.440Z,35.00
2019-02-25T02:44:24.121Z,32.93
2019-02-25T02:49:27.793Z,31.67
2019-02-25T02:54:31.482Z,35.23
2019-02-25T02:59:35.234Z,37.37
2019-02-25T03:04:39.066Z,37.07
2019-02-25T03:09:42.834Z,34.83
2019-02-25T03:14:46.554Z,35.27
2019-02-25T03:19:50.285Z,32.33
2019-02-25T03:24:53.556Z,33.93
2019-02-25T03:29:57.538Z,45.83
2019-02-25T03:35:01.258Z,46.43
2019-02-25T03:40:06.378Z,35.93
2019-02-25T03:45:11.214Z,38.60
2019-02-25T03:50:15.218Z,45.33
2019-02-25T03:55:19.208Z,42.77
2019-02-25T04:00:22.577Z,46.00
2019-02-25T04:05:26.614Z,42.30
2019-02-25T04:10:30.376Z,71.50
2019-02-25T04:15:36.901Z,52.00
2019-02-25T04:20:40.276Z,43.57
2019-02-25T04:25:43.541Z,42.47
2019-02-25T04:30:46.881Z,40.30
2019-02-25T04:35:50.603Z,37.43
2019-02-25T04:40:54.333Z,31.53
2019-02-25T04:45:58.071Z,34.10
2019-02-25T04:51:01.373Z,28.60
2019-02-25T04:56:05.267Z,42.87
2019-02-25T05:01:09.149Z,31.00
2019-02-25T05:06:12.859Z,29.10
2019-02-25T05:11:16.129Z,27.60
2019-02-25T05:16:19.821Z,25.40
2019-02-25T05:21:23.506Z,28.80
2019-02-25T05:26:27.205Z,27.20
2019-02-25T05:31:30.510Z,27.33
2019-02-25T05:36:33.897Z,24.93
2019-02-25T05:41:37.821Z,29.10
2019-02-25T05:46:41.505Z,29.63
2019-02-25T05:51:44.768Z,32.33
2019-02-25T05:56:48.037Z,31.33
2019-02-25T06:01:51.576Z,40.00
2019-02-25T06:06:55.266Z,40.47
2019-02-25T06:11:58.810Z,33.77
2019-02-25T06:17:02.085Z,39.97
2019-02-25T06:22:05.392Z,42.77
2019-02-25T06:27:08.710Z,36.07
2019-02-25T06:32:11.982Z,46.93
2019-02-25T06:37:15.263Z,42.33
2019-02-25T06:42:18.572Z,35.13
2019-02-25T06:47:21.942Z,32.30
2019-02-25T06:52:25.217Z,40.13
2019-02-25T06:57:28.493Z,52.33
2019-02-25T07:02:31.764Z,71.20
2019-02-25T07:08:12.617Z,105.90
2019-02-25T07:13:24.313Z,132.53
2019-02-25T07:18:36.067Z,98.43
2019-02-25T07:23:56.955Z,63.53
2019-02-25T07:29:10.093Z,51.97
2019-02-25T07:34:19.565Z,52.60
2019-02-25T07:39:33.750Z,52.83
2019-02-25T07:45:01.725Z,53.17
2019-02-25T07:50:14.253Z,63.40
2019-02-25T07:55:43.186Z,57.33
2019-02-25T08:00:57.129Z,198.83
2019-02-25T08:06:18.144Z,318.90
2019-02-25T08:11:39.639Z,500.03
2019-02-25T08:17:01.266Z,777.13
2019-02-25T08:22:41.862Z,744.30
2019-02-25T08:28:04.345Z,521.43
2019-02-25T08:33:30.146Z,474.53
2019-02-25T08:38:49.530Z,589.50
2019-02-25T08:44:07.294Z,645.63
2019-02-25T08:49:13.977Z,999.90
2019-02-25T08:54:17.702Z,999.90
2019-02-25T08:59:21.114Z,999.90
2019-02-25T09:04:24.981Z,999.90
2019-02-25T09:09:28.279Z,999.90
2019-02-25T09:14:32.121Z,999.90
2019-02-25T09:19:35.842Z,999.90
2019-02-25T09:24:40.863Z,999.90
2019-02-25T09:29:45.107Z,999.90
2019-02-25T09:34:48.789Z,999.90
2019-02-25T09:39:52.485Z,999.90
2019-02-25T09:44:58.255Z,999.90
2019-02-25T09:50:01.211Z,999.90
2019-02-25T09:55:04.681Z,999.90
2019-02-25T10:00:09.721Z,999.90
2019-02-25T10:05:13.502Z,999.90
2019-02-25T10:10:17.977Z,999.90
2019-02-25T10:15:21.672Z,999.90
2019-02-25T10:20:24.982Z,999.90
2019-02-25T10:25:28.300Z,999.90
2019-02-25T10:30:32.050Z,999.90
2019-02-25T10:35:35.982Z,999.90
2019-02-25T10:40:39.867Z,999.90
2019-02-25T10:45:45.429Z,999.90
2019-02-25T10:50:55.791Z,999.90
2019-02-25T10:56:05.147Z,999.90
2019-02-25T11:01:13.539Z,999.90
2019-02-25T11:06:14.438Z,862.70
2019-02-25T11:11:23.225Z,999.90
2019-02-25T11:16:26.906Z,804.37
2019-02-25T11:21:32.943Z,911.30
2019-02-25T11:26:37.417Z,935.03
2019-02-25T11:31:41.161Z,830.80
2019-02-25T11:36:45.166Z,773.03
2019-02-25T11:41:48.959Z,957.83
2019-02-25T11:46:52.711Z,998.27
2019-02-25T11:51:56.100Z,999.90
2019-02-25T11:57:00.547Z,999.90
2019-02-25T12:02:04.811Z,999.90
2019-02-25T12:07:08.554Z,564.87
2019-02-25T12:12:12.285Z,924.03
2019-02-25T12:17:16.152Z,227.97
2019-02-25T12:22:19.499Z,751.13
2019-02-25T12:27:22.973Z,601.30
2019-02-25T12:32:26.308Z,999.90
2019-02-25T12:37:29.693Z,687.23
2019-02-25T12:42:33.283Z,209.40
2019-02-25T12:47:37.034Z,708.40
2019-02-25T12:52:40.413Z,514.27
2019-02-25T12:57:44.234Z,562.93
2019-02-25T13:02:48.406Z,86.53
2019-02-25T13:07:52.237Z,671.37
2019-02-25T13:12:56.026Z,606.90
2019-02-25T13:18:00.219Z,59.43
2019-02-25T13:23:04.323Z,209.20
2019-02-25T13:28:08.324Z,46.53
2019-02-25T13:33:12.478Z,30.40
2019-02-25T13:38:16.198Z,305.17
2019-02-25T13:43:19.499Z,59.17
2019-02-25T13:48:23.294Z,134.30
2019-02-25T13:53:27.255Z,235.87
2019-02-25T13:58:31.214Z,125.27
2019-02-25T14:03:34.622Z,374.00
2019-02-25T14:08:37.994Z,184.40
2019-02-25T14:13:41.804Z,328.80
2019-02-25T14:18:45.698Z,616.13
2019-02-25T14:23:49.111Z,139.03
2019-02-25T14:28:52.506Z,292.40
2019-02-25T14:33:56.542Z,418.07
2019-02-25T14:39:02.217Z,448.33
2019-02-25T14:44:06.069Z,670.23
2019-02-25T14:49:10.138Z,584.57
2019-02-25T14:54:14.219Z,696.87
2019-02-25T14:59:20.370Z,577.03
2019-02-25T15:04:23.414Z,128.00
2019-02-25T15:09:28.375Z,481.33
2019-02-25T15:14:32.618Z,133.40
2019-02-25T15:19:36.440Z,98.07
2019-02-25T15:24:43.968Z,134.10
2019-02-25T15:29:46.821Z,39.83
2019-02-25T15:34:52.808Z,91.13
2019-02-25T15:39:56.498Z,125.60
2019-02-25T15:45:00.480Z,436.70
2019-02-25T15:50:05.963Z,80.73
2019-02-25T15:55:13.088Z,37.23
2019-02-25T16:00:16.721Z,46.87
2019-02-25T16:05:23.244Z,27.50
2019-02-25T16:10:26.451Z,29.27
2019-02-25T16:15:30.689Z,35.63
2019-02-25T16:20:35.434Z,46.33
2019-02-25T16:25:39.926Z,100.70
2019-02-25T16:30:44.622Z,80.20
2019-02-25T16:35:48.497Z,245.47
2019-02-25T16:40:54.641Z,238.90
2019-02-25T16:45:59.441Z,386.60
2019-02-25T16:51:05.513Z,309.33
2019-02-25T16:56:10.045Z,729.30
2019-02-25T17:01:14.183Z,999.90
2019-02-25T17:06:18.259Z,999.90
2019-02-25T17:11:23.253Z,999.90
2019-02-25T17:16:27.203Z,999.90
2019-02-25T17:21:30.683Z,999.90
2019-02-25T17:26:34.166Z,699.93
2019-02-25T17:31:38.691Z,686.83
2019-02-25T17:36:44.801Z,504.40
2019-02-25T17:41:49.133Z,587.87
2019-02-25T17:46:53.001Z,924.17
2019-02-25T17:51:58.263Z,973.23
2019-02-25T17:57:03.197Z,999.90
2019-02-25T18:02:08.346Z,999.90
2019-02-25T18:07:13.982Z,999.90
2019-02-25T18:12:18.939Z,999.90
2019-02-25T18:17:23.726Z,999.90
2019-02-25T18:22:27.847Z,999.90
2019-02-25T18:27:37.444Z,999.90
2019-02-25T18:32:41.806Z,999.90
2019-02-25T18:37:46.001Z,999.90
2019-02-25T18:42:49.990Z,999.90
2019-02-25T18:47:54.453Z,999.90
2019-02-25T18:52:59.573Z,999.90
2019-02-25T18:58:07.309Z,999.90
2019-02-25T19:03:10.501Z,999.90
2019-02-25T19:08:20.290Z,999.90
2019-02-25T19:13:25.379Z,999.90
2019-02-25T19:18:29.460Z,999.90
2019-02-25T19:23:36.942Z,999.90
2019-02-25T19:28:39.782Z,999.90
2019-02-25T19:33:43.646Z,999.90
2019-02-25T19:38:48.617Z,999.90
2019-02-25T19:43:59.148Z,999.90
2019-02-25T19:48:58.053Z,999.90
2019-02-25T19:54:02.588Z,999.90
2019-02-25T19:59:07.954Z,999.90
2019-02-25T20:04:13.975Z,999.90
2019-02-25T20:09:18.027Z,999.90
2019-02-25T20:14:21.381Z,999.90
2019-02-25T20:19:24.877Z,999.90
2019-02-25T20:24:28.181Z,999.90
2019-02-25T20:29:33.763Z,999.90
2019-02-25T20:34:37.435Z,999.90
2019-02-25T20:39:42.864Z,999.90
2019-02-25T20:44:46.734Z,999.90
2019-02-25T20:49:53.706Z,999.90
2019-02-25T20:54:56.204Z,999.90
2019-02-25T21:00:00.241Z,999.90
2019-02-25T21:05:04.626Z,999.90
2019-02-25T21:10:09.641Z,999.90
2019-02-25T21:15:14.008Z,999.90
2019-02-25T21:20:19.253Z,999.90
2019-02-25T21:25:26.395Z,999.90
2019-02-25T21:30:28.157Z,999.90
2019-02-25T21:35:35.392Z,999.90
2019-02-25T21:40:36.934Z,999.90
2019-02-25T21:45:40.249Z,999.90
2019-02-25T21:50:43.559Z,999.90
2019-02-25T21:55:46.917Z,999.90
2019-02-25T22:00:50.933Z,999.90
2019-02-25T22:05:56.179Z,999.90
2019-02-25T22:11:12.009Z,999.90
2019-02-25T22:16:06.313Z,999.90
2019-02-25T22:21:13.685Z,977.60
2019-02-25T22:26:15.822Z,999.90
2019-02-25T22:31:19.826Z,941.93
2019-02-25T22:36:23.822Z,999.90
2019-02-25T22:41:27.286Z,957.50
2019-02-25T22:46:32.283Z,999.90
2019-02-25T22:51:37.432Z,999.90
2019-02-25T22:56:40.873Z,999.90
2019-02-25T23:01:44.960Z,999.90
2019-02-25T23:06:49.586Z,959.60
2019-02-25T23:11:55.427Z,974.63
2019-02-25T23:16:59.805Z,978.07
2019-02-25T23:22:04.859Z,999.90
2019-02-25T23:27:08.753Z,999.90
2019-02-25T23:32:12.223Z,999.90
2019-02-25T23:37:17.434Z,999.90
2019-02-25T23:42:21.531Z,999.90
2019-02-25T23:47:26.955Z,999.90
2019-02-25T23:52:30.979Z,999.90
2019-02-25T23:57:35.575Z,999.90
